Time;durP1;ratioP1;P1;durP2;ratioP2;P2;SDS_P1;SDS_P2;PMS_P1;PMS_P2;Temp;Humidity;BMP_temperature;BMP_pressure;BME280_temperature;BME280_humidity;BME280_pressure;Samples;Min_cycle;Max_cycle;Signal;HPM_P1;HPM_P2
2022/01/12 00:01:22;;;;;;;1.37;1.30;;;;;;;;;;1853768;76;26283;-38
2022/01/12 00:03:51;;;;;;;1.40;1.30;;;;;;;;;;1846126;77;26700;-31
2022/01/12 00:06:18;;;;;;;1.50;1.40;;;;;;;;;;1852976;76;26400;-41
2022/01/12 00:08:47;;;;;;;1.40;1.40;;;;;;;;;;1849285;76;26415;-40
2022/01/12 00:11:14;;;;;;;1.30;1.30;;;;;;;;;;1847395;76;26340;-27
2022/01/12 00:13:42;;;;;;;1.37;1.37;;;;;;;;;;1846715;76;26307;-47
2022/01/12 00:16:09;;;;;;;1.25;1.25;;;;;;;;;;1850395;76;26826;-27
2022/01/12 00:18:36;;;;;;;1.30;1.30;;;;;;;;;;1848734;76;26288;-41
2022/01/12 00:21:04;;;;;;;1.10;1.10;;;;;;;;;;1846560;76;26281;-49
2022/01/12 00:23:32;;;;;;;1.57;1.47;;;;;;;;;;1847667;77;26748;-46
2022/01/12 00:34:01;;;;;;;1.35;1.35;;;;;;;;;;1836839;76;26426;-40
2022/01/12 00:36:30;;;;;;;1.40;1.40;;;;;;;;;;1832937;76;26297;-38
2022/01/12 00:38:58;;;;;;;1.40;1.40;;;;;;;;;;1839846;76;26327;-33
2022/01/12 00:41:25;;;;;;;1.40;1.40;;;;;;;;;;1840528;77;26655;-34
2022/01/12 00:44:06;;;;;;;1.85;1.50;;;;;;;;;;1832509;76;26271;-36
2022/01/12 00:46:21;;;;;;;1.30;1.30;;;;;;;;;;1835690;77;26773;-31
2022/01/12 00:48:49;;;;;;;1.50;1.50;;;;;;;;;;1840499;76;26331;-34
2022/01/12 00:51:17;;;;;;;1.40;1.40;;;;;;;;;;1837751;77;26269;-39
2022/01/12 00:53:44;;;;;;;1.22;1.22;;;;;;;;;;1838453;76;26308;-39
2022/01/12 00:56:11;;;;;;;1.35;1.35;;;;;;;;;;1837403;76;26201;-28
2022/01/12 00:58:39;;;;;;;1.40;1.40;;;;;;;;;;1840000;77;26275;-33
2022/01/12 01:01:06;;;;;;;1.40;1.40;;;;;;;;;;1833508;76;26310;-31
2022/01/12 01:03:34;;;;;;;1.20;1.20;;;;;;;;;;1832104;76;26361;-38
2022/01/12 01:06:01;;;;;;;1.55;1.47;;;;;;;;;;1835963;77;26298;-27
2022/01/12 01:08:29;;;;;;;1.47;1.47;;;;;;;;;;1837286;77;26740;-27
2022/01/12 01:10:56;;;;;;;1.42;1.42;;;;;;;;;;1838079;76;26349;-42
2022/01/12 01:13:26;;;;;;;1.50;1.42;;;;;;;;;;1841672;76;26367;-32
2022/01/12 01:26:48;;;;;;;1.47;1.47;;;;;;;;;;1838851;77;26341;-48
2022/01/12 01:29:15;;;;;;;1.60;1.60;;;;;;;;;;1833055;76;26365;-52
2022/01/12 01:31:45;;;;;;;1.60;1.50;;;;;;;;;;1836052;77;26944;-41
2022/01/12 01:34:14;;;;;;;1.50;1.50;;;;;;;;;;1832984;76;27343;-41
2022/01/12 01:36:43;;;;;;;1.60;1.60;;;;;;;;;;1844472;76;26655;-41
2022/01/12 01:39:12;;;;;;;1.92;1.60;;;;;;;;;;1835088;76;26268;-28
2022/01/12 01:41:42;;;;;;;1.50;1.50;;;;;;;;;;1834586;76;26224;-32
2022/01/12 01:54:59;;;;;;;1.47;1.47;;;;;;;;;;1839988;77;26340;-34
2022/01/12 01:57:27;;;;;;;1.50;1.50;;;;;;;;;;1834859;76;26224;-41
2022/01/12 01:59:54;;;;;;;1.50;1.50;;;;;;;;;;1833852;76;26651;-47
2022/01/12 02:02:21;;;;;;;1.60;1.60;;;;;;;;;;1836825;76;26270;-35
2022/01/12 02:04:49;;;;;;;1.52;1.52;;;;;;;;;;1838021;76;26742;-31
2022/01/12 02:07:16;;;;;;;1.55;1.45;;;;;;;;;;1842154;77;26830;-41
2022/01/12 02:09:43;;;;;;;1.50;1.50;;;;;;;;;;1839550;77;26299;-36
2022/01/12 02:12:12;;;;;;;1.40;1.40;;;;;;;;;;1830489;76;26290;-44
2022/01/12 02:14:40;;;;;;;1.80;1.65;;;;;;;;;;1831390;76;26368;-51
2022/01/12 02:17:18;;;;;;;1.60;1.60;;;;;;;;;;1838103;76;26308;-43
2022/01/12 02:19:50;;;;;;;1.60;1.60;;;;;;;;;;1826950;77;26354;-46
2022/01/12 02:36:17;;;;;;;1.55;1.55;;;;;;;;;;1846189;76;26550;-37
2022/01/12 02:41:26;;;;;;;1.80;1.70;;;;;;;;;;1849478;76;26288;-27
2022/01/12 02:54:47;;;;;;;1.60;1.60;;;;;;;;;;1848701;76;27530;-37
2022/01/12 02:57:15;;;;;;;1.80;1.70;;;;;;;;;;1849812;76;25765;-42
2022/01/12 03:02:35;;;;;;;1.70;1.70;;;;;;;;;;1846137;76;26347;-41
2022/01/12 03:07:41;;;;;;;1.50;1.50;;;;;;;;;;1849683;76;26319;-46
2022/01/12 03:10:10;;;;;;;1.70;1.70;;;;;;;;;;1842838;76;26637;-33
2022/01/12 03:12:39;;;;;;;1.70;1.60;;;;;;;;;;1849487;76;26709;-43
2022/01/12 03:15:07;;;;;;;1.67;1.57;;;;;;;;;;1852783;76;27233;-36
2022/01/12 03:17:34;;;;;;;1.90;1.80;;;;;;;;;;1854669;76;26974;-42
2022/01/12 03:20:02;;;;;;;1.70;1.60;;;;;;;;;;1850215;76;26384;-37
2022/01/12 03:22:29;;;;;;;2.00;1.90;;;;;;;;;;1839284;76;25670;-39
2022/01/12 03:24:57;;;;;;;1.60;1.60;;;;;;;;;;1846707;76;27031;-34
2022/01/12 03:27:26;;;;;;;1.67;1.57;;;;;;;;;;1852265;76;26791;-33
2022/01/12 03:29:56;;;;;;;1.95;1.87;;;;;;;;;;1851664;76;26314;-48
2022/01/12 03:32:32;;;;;;;1.90;1.80;;;;;;;;;;1829625;77;26321;-28
2022/01/12 03:35:05;;;;;;;1.92;1.82;;;;;;;;;;1805814;79;26274;-41
2022/01/12 03:37:42;;;;;;;1.98;1.87;;;;;;;;;;1802408;77;26313;-38
2022/01/12 03:40:09;;;;;;;1.57;1.52;;;;;;;;;;1808599;79;26879;-34
2022/01/12 03:42:37;;;;;;;1.70;1.60;;;;;;;;;;1817286;77;26356;-49
2022/01/12 03:45:05;;;;;;;1.95;1.85;;;;;;;;;;1804356;77;26374;-38
2022/01/12 03:47:32;;;;;;;1.85;1.75;;;;;;;;;;1805860;78;26265;-35
2022/01/12 03:49:59;;;;;;;1.70;1.70;;;;;;;;;;1808112;77;26291;-37
2022/01/12 03:52:26;;;;;;;2.00;1.90;;;;;;;;;;1800399;79;26282;-39
2022/01/12 03:54:54;;;;;;;2.02;1.70;;;;;;;;;;1802826;79;26392;-27
2022/01/12 03:57:21;;;;;;;1.82;1.72;;;;;;;;;;1812228;79;26247;-31
2022/01/12 03:59:49;;;;;;;1.62;1.62;;;;;;;;;;1808003;78;26298;-27
2022/01/12 04:02:16;;;;;;;1.80;1.80;;;;;;;;;;1808327;77;26321;-36
2022/01/12 04:05:07;;;;;;;1.90;1.80;;;;;;;;;;1815512;77;26239;-45
2022/01/12 04:09:57;;;;;;;2.25;2.15;;;;;;;;;;1808365;79;26430;-29
2022/01/12 04:12:26;;;;;;;1.95;1.85;;;;;;;;;;1812178;78;26444;-30
2022/01/12 04:14:54;;;;;;;2.08;1.98;;;;;;;;;;1813578;77;25868;-39
2022/01/12 04:17:21;;;;;;;1.77;1.70;;;;;;;;;;1810206;77;26725;-27
2022/01/12 04:19:48;;;;;;;1.98;1.87;;;;;;;;;;1805062;79;26863;-42
2022/01/12 04:25:01;;;;;;;2.00;1.90;;;;;;;;;;1806173;79;26874;-38
2022/01/12 04:27:28;;;;;;;1.90;1.80;;;;;;;;;;1807255;78;26250;-31
2022/01/12 04:29:55;;;;;;;1.70;1.70;;;;;;;;;;1801849;77;26278;-33
2022/01/12 04:32:24;;;;;;;1.90;1.80;;;;;;;;;;1819763;77;26343;-33
2022/01/12 04:34:52;;;;;;;1.90;1.80;;;;;;;;;;1833109;76;26268;-27
2022/01/12 04:37:20;;;;;;;1.60;1.55;;;;;;;;;;1841415;77;26771;-50
2022/01/12 04:39:47;;;;;;;1.65;1.55;;;;;;;;;;1838767;77;26350;-46
2022/01/12 04:42:14;;;;;;;2.00;1.90;;;;;;;;;;1839475;76;26191;-42
2022/01/12 04:44:45;;;;;;;2.00;1.90;;;;;;;;;;1840614;77;26225;-36
2022/01/12 04:47:26;;;;;;;1.65;1.65;;;;;;;;;;1840510;76;26287;-41
2022/01/12 04:49:47;;;;;;;1.98;1.87;;;;;;;;;;1833918;76;26799;-39
2022/01/12 04:52:16;;;;;;;1.70;1.60;;;;;;;;;;1830618;76;26338;-37
2022/01/12 04:54:43;;;;;;;1.80;1.80;;;;;;;;;;1836252;76;26276;-41
2022/01/12 04:57:11;;;;;;;1.80;1.70;;;;;;;;;;1839047;76;26267;-40
2022/01/12 04:59:50;;;;;;;1.75;1.70;;;;;;;;;;1834727;76;25661;-40
2022/01/12 05:07:46;;;;;;;1.80;1.70;;;;;;;;;;1831374;76;26392;-40
2022/01/12 05:12:54;;;;;;;1.75;1.75;;;;;;;;;;1837924;76;26400;-50
2022/01/12 05:15:31;;;;;;;1.90;1.80;;;;;;;;;;1836298;76;26366;-49
2022/01/12 05:17:56;;;;;;;2.05;1.95;;;;;;;;;;1835451;76;27268;-31
2022/01/12 05:20:24;;;;;;;1.80;1.80;;;;;;;;;;1829506;76;26917;-47
2022/01/12 05:22:51;;;;;;;1.50;1.50;;;;;;;;;;1841120;76;26271;-45
2022/01/12 05:25:19;;;;;;;1.52;1.52;;;;;;;;;;1839391;76;26813;-43
2022/01/12 05:27:47;;;;;;;1.60;1.60;;;;;;;;;;1844106;76;26374;-51
2022/01/12 05:30:15;;;;;;;1.80;1.70;;;;;;;;;;1837226;76;26300;-31
2022/01/12 05:32:43;;;;;;;1.77;1.67;;;;;;;;;;1839296;76;26676;-44
2022/01/12 05:35:12;;;;;;;1.90;1.80;;;;;;;;;;1847796;76;26288;-38
2022/01/12 05:37:40;;;;;;;1.80;1.70;;;;;;;;;;1845629;76;26304;-39
2022/01/12 05:40:08;;;;;;;1.80;1.70;;;;;;;;;;1836855;76;26256;-30
2022/01/12 05:42:35;;;;;;;1.90;1.80;;;;;;;;;;1847171;77;26340;-35
2022/01/12 05:45:04;;;;;;;1.98;1.87;;;;;;;;;;1849299;77;26283;-44
2022/01/12 05:49:34;;;;;;;1.70;1.70;;;;;;;;;;1851193;76;26358;-43
2022/01/12 05:50:09;;;;;;;2.08;1.98;;;;;;;;;;1843007;77;26295;-49
2022/01/12 05:52:36;;;;;;;4.33;1.70;;;;;;;;;;1841474;76;26271;-46
2022/01/12 05:55:05;;;;;;;1.60;1.60;;;;;;;;;;1844839;76;26712;-38
2022/01/12 05:57:33;;;;;;;2.00;1.90;;;;;;;;;;1851841;76;26276;-46
2022/01/12 06:00:00;;;;;;;2.00;1.90;;;;;;;;;;1852026;76;26323;-31
2022/01/12 06:02:28;;;;;;;1.82;1.70;;;;;;;;;;1856295;76;26386;-45
2022/01/12 06:04:56;;;;;;;3.05;1.70;;;;;;;;;;1854124;76;26264;-41
2022/01/12 06:07:23;;;;;;;2.17;2.08;;;;;;;;;;1850705;76;26263;-32
2022/01/12 06:09:51;;;;;;;2.87;1.72;;;;;;;;;;1852180;76;26341;-48
2022/01/12 06:12:18;;;;;;;1.65;1.60;;;;;;;;;;1852205;76;26306;-38
2022/01/12 06:14:46;;;;;;;2.20;1.85;;;;;;;;;;1857945;76;26743;-31
2022/01/12 06:17:13;;;;;;;2.85;2.00;;;;;;;;;;1853487;76;26283;-38
2022/01/12 06:19:41;;;;;;;2.08;1.90;;;;;;;;;;1856403;76;26830;-38
2022/01/12 06:22:08;;;;;;;2.77;1.87;;;;;;;;;;1851449;76;26304;-35
2022/01/12 06:24:36;;;;;;;3.20;1.80;;;;;;;;;;1856737;76;26704;-40
2022/01/12 06:27:04;;;;;;;2.42;2.02;;;;;;;;;;1850821;76;26315;-32
2022/01/12 06:29:44;;;;;;;1.85;1.75;;;;;;;;;;1855187;76;26279;-53
2022/01/12 06:32:10;;;;;;;1.90;1.80;;;;;;;;;;1854424;76;26290;-51
2022/01/12 06:34:37;;;;;;;3.33;2.02;;;;;;;;;;1841178;76;26279;-37
2022/01/12 06:37:04;;;;;;;1.87;1.70;;;;;;;;;;1839814;76;26854;-40
2022/01/12 06:39:32;;;;;;;2.30;2.10;;;;;;;;;;1842998;76;26244;-44
2022/01/12 06:41:59;;;;;;;4.17;1.92;;;;;;;;;;1843059;76;26196;-32
2022/01/12 06:44:27;;;;;;;2.50;1.70;;;;;;;;;;1841225;76;25719;-57
2022/01/12 06:46:56;;;;;;;2.10;2.00;;;;;;;;;;1844939;76;26249;-31
2022/01/12 06:49:23;;;;;;;2.22;2.10;;;;;;;;;;1842899;76;26331;-35
2022/01/12 06:51:51;;;;;;;2.08;1.90;;;;;;;;;;1843983;76;25811;-37
2022/01/12 06:54:19;;;;;;;3.30;1.90;;;;;;;;;;1841255;76;26269;-37
2022/01/12 06:56:46;;;;;;;5.08;2.00;;;;;;;;;;1841380;76;26789;-32
2022/01/12 06:59:13;;;;;;;2.90;2.35;;;;;;;;;;1825286;76;28645;-28
2022/01/12 07:01:40;;;;;;;8.13;2.00;;;;;;;;;;1840823;76;27449;-33
2022/01/12 07:04:08;;;;;;;2.33;2.10;;;;;;;;;;1840646;76;26332;-36
2022/01/12 07:06:35;;;;;;;2.77;1.85;;;;;;;;;;1840156;76;26232;-29
2022/01/12 07:09:06;;;;;;;4.20;2.10;;;;;;;;;;1842263;76;26297;-29
2022/01/12 07:11:33;;;;;;;1.98;1.87;;;;;;;;;;1839575;76;26342;-34
2022/01/12 07:14:00;;;;;;;2.45;1.92;;;;;;;;;;1839649;76;26424;-33
2022/01/12 07:16:28;;;;;;;4.37;2.00;;;;;;;;;;1839616;76;26267;-35
2022/01/12 07:18:59;;;;;;;4.00;2.15;;;;;;;;;;1840839;76;26317;-32
2022/01/12 07:21:24;;;;;;;4.65;1.82;;;;;;;;;;1840100;76;26607;-30
2022/01/12 07:23:54;;;;;;;1.90;1.80;;;;;;;;;;1840037;76;26350;-28
2022/01/12 07:26:20;;;;;;;2.80;1.87;;;;;;;;;;1837156;76;26866;-31
2022/01/12 07:28:47;;;;;;;3.90;2.17;;;;;;;;;;1834972;77;26264;-29
2022/01/12 07:31:14;;;;;;;1.92;1.82;;;;;;;;;;1839573;77;26291;-28
2022/01/12 07:33:42;;;;;;;1.98;1.80;;;;;;;;;;1833778;77;26712;-30
2022/01/12 07:36:09;;;;;;;2.20;2.00;;;;;;;;;;1845973;76;26324;-32
2022/01/12 07:38:36;;;;;;;2.00;1.77;;;;;;;;;;1852576;76;26267;-28
2022/01/12 07:41:04;;;;;;;3.20;1.92;;;;;;;;;;1842774;76;26320;-28
2022/01/12 07:43:31;;;;;;;5.53;1.72;;;;;;;;;;1845316;77;26281;-28
2022/01/12 07:45:58;;;;;;;2.10;1.90;;;;;;;;;;1845072;77;26208;-31
2022/01/12 07:48:26;;;;;;;1.85;1.75;;;;;;;;;;1845433;76;26393;-31
2022/01/12 07:50:53;;;;;;;2.02;1.92;;;;;;;;;;1848715;76;26652;-29
2022/01/12 07:53:20;;;;;;;3.27;1.90;;;;;;;;;;1848588;77;26210;-25
2022/01/12 07:55:48;;;;;;;1.85;1.75;;;;;;;;;;1850417;77;26274;-28
2022/01/12 07:58:15;;;;;;;1.92;1.80;;;;;;;;;;1837405;76;26293;-30
2022/01/12 08:00:42;;;;;;;2.10;1.87;;;;;;;;;;1841411;76;26276;-31
2022/01/12 08:03:12;;;;;;;1.77;1.67;;;;;;;;;;1847735;77;26321;-28
2022/01/12 08:05:39;;;;;;;1.57;1.35;;;;;;;;;;1845759;77;26281;-30
2022/01/12 08:08:06;;;;;;;1.70;1.60;;;;;;;;;;1840739;76;26327;-26
2022/01/12 08:10:34;;;;;;;1.65;1.55;;;;;;;;;;1844359;76;26307;-32
2022/01/12 08:13:01;;;;;;;1.60;1.60;;;;;;;;;;1846779;77;26820;-30
2022/01/12 08:15:28;;;;;;;1.62;1.52;;;;;;;;;;1849257;77;26338;-26
2022/01/12 08:17:56;;;;;;;1.70;1.60;;;;;;;;;;1845376;76;26353;-25
2022/01/12 08:20:28;;;;;;;1.80;1.70;;;;;;;;;;1850734;76;26200;-26
2022/01/12 08:22:53;;;;;;;1.67;1.57;;;;;;;;;;1851955;76;26275;-32
2022/01/12 08:25:20;;;;;;;1.80;1.70;;;;;;;;;;1851540;76;26658;-29
2022/01/12 08:27:47;;;;;;;1.82;1.72;;;;;;;;;;1850306;76;26242;-27
2022/01/12 08:30:17;;;;;;;1.80;1.70;;;;;;;;;;1854994;76;26756;-35
2022/01/12 08:32:45;;;;;;;2.37;1.60;;;;;;;;;;1855310;76;26298;-32
2022/01/12 08:35:13;;;;;;;1.50;1.40;;;;;;;;;;1849867;76;26335;-29
2022/01/12 08:37:40;;;;;;;1.87;1.77;;;;;;;;;;1848446;76;26275;-33
2022/01/12 08:40:08;;;;;;;2.45;1.62;;;;;;;;;;1839899;76;26295;-32
2022/01/12 08:42:36;;;;;;;2.37;1.50;;;;;;;;;;1838387;76;26149;-30
2022/01/12 08:45:04;;;;;;;3.70;1.50;;;;;;;;;;1838324;76;26267;-26
2022/01/12 08:47:32;;;;;;;1.60;1.50;;;;;;;;;;1841282;76;26559;-30
2022/01/12 08:49:59;;;;;;;1.57;1.57;;;;;;;;;;1826017;76;39087;-27
2022/01/12 08:52:30;;;;;;;1.70;1.60;;;;;;;;;;1839407;76;26291;-28
2022/01/12 08:54:57;;;;;;;2.20;1.40;;;;;;;;;;1841915;76;26292;-27
2022/01/12 08:57:24;;;;;;;1.60;1.50;;;;;;;;;;1838703;76;26338;-28
2022/01/12 08:59:52;;;;;;;3.33;1.32;;;;;;;;;;1839780;76;26318;-29
2022/01/12 09:02:19;;;;;;;1.40;1.30;;;;;;;;;;1842166;76;26723;-31
2022/01/12 09:04:46;;;;;;;1.87;1.35;;;;;;;;;;1839857;76;26263;-31
2022/01/12 09:07:14;;;;;;;1.52;1.20;;;;;;;;;;1841499;76;26672;-28
2022/01/12 09:09:41;;;;;;;2.72;1.50;;;;;;;;;;1839744;76;26307;-34
2022/01/12 09:12:09;;;;;;;1.40;1.20;;;;;;;;;;1838137;76;26714;-31
2022/01/12 09:14:37;;;;;;;1.40;1.30;;;;;;;;;;1835727;77;27509;-30
2022/01/12 09:17:05;;;;;;;1.50;1.40;;;;;;;;;;1837661;77;26216;-27
2022/01/12 09:19:33;;;;;;;1.15;1.15;;;;;;;;;;1832028;76;26272;-26
2022/01/12 09:22:00;;;;;;;1.62;1.55;;;;;;;;;;1836467;77;26688;-27
2022/01/12 09:24:27;;;;;;;2.60;1.30;;;;;;;;;;1838459;76;26279;-26
2022/01/12 09:26:55;;;;;;;1.20;1.20;;;;;;;;;;1842368;76;26325;-38
2022/01/12 09:29:23;;;;;;;1.42;1.32;;;;;;;;;;1832637;77;26718;-26
2022/01/12 09:31:51;;;;;;;1.20;1.20;;;;;;;;;;1831577;77;26750;-31
2022/01/12 09:34:18;;;;;;;1.25;1.25;;;;;;;;;;1834193;76;26307;-32
2022/01/12 09:36:46;;;;;;;1.30;1.30;;;;;;;;;;1847092;76;26877;-32
2022/01/12 09:39:13;;;;;;;2.08;1.20;;;;;;;;;;1847801;76;26266;-29
2022/01/12 09:41:40;;;;;;;1.20;1.20;;;;;;;;;;1848474;77;26252;-29
2022/01/12 09:44:07;;;;;;;1.10;1.10;;;;;;;;;;1846175;76;26299;-29
2022/01/12 09:46:35;;;;;;;1.37;1.30;;;;;;;;;;1844701;76;26228;-27
2022/01/12 09:49:06;;;;;;;1.42;1.10;;;;;;;;;;1854178;76;26793;-30
2022/01/12 09:51:31;;;;;;;1.10;1.10;;;;;;;;;;1844952;76;26737;-34
2022/01/12 09:53:59;;;;;;;1.35;1.25;;;;;;;;;;1844415;76;26275;-27
2022/01/12 09:56:31;;;;;;;1.10;1.10;;;;;;;;;;1846489;76;26299;-34
2022/01/12 09:59:00;;;;;;;1.10;1.10;;;;;;;;;;1846209;77;26265;-27
2022/01/12 10:01:29;;;;;;;3.80;1.30;;;;;;;;;;1846486;76;26808;-30
2022/01/12 10:04:16;;;;;;;1.00;1.00;;;;;;;;;;1849441;76;26871;-28
2022/01/12 10:06:48;;;;;;;1.95;0.90;;;;;;;;;;1844143;76;26268;-27
2022/01/12 10:09:16;;;;;;;1.57;1.10;;;;;;;;;;1847244;76;26258;-26
2022/01/12 10:11:50;;;;;;;1.12;1.00;;;;;;;;;;1848695;76;26770;-25
2022/01/12 10:14:18;;;;;;;1.00;1.00;;;;;;;;;;1854064;76;26322;-33
2022/01/12 10:16:52;;;;;;;0.90;0.90;;;;;;;;;;1850531;76;26260;-31
2022/01/12 10:19:26;;;;;;;1.35;1.00;;;;;;;;;;1848437;76;26296;-31
2022/01/12 10:21:54;;;;;;;0.88;0.88;;;;;;;;;;1839261;76;26280;-32
2022/01/12 10:24:22;;;;;;;1.07;1.07;;;;;;;;;;1848731;77;26268;-34
2022/01/12 10:26:51;;;;;;;0.98;0.98;;;;;;;;;;1843809;76;26743;-37
2022/01/12 10:29:24;;;;;;;1.00;1.00;;;;;;;;;;1851528;77;26725;-29
2022/01/12 10:31:52;;;;;;;0.90;0.90;;;;;;;;;;1847437;77;26292;-32
2022/01/12 10:34:22;;;;;;;0.82;0.82;;;;;;;;;;1847154;76;26377;-29
2022/01/12 10:36:49;;;;;;;1.00;1.00;;;;;;;;;;1854085;76;26306;-32
2022/01/12 10:39:18;;;;;;;0.90;0.90;;;;;;;;;;1855544;76;26291;-33
2022/01/12 10:42:05;;;;;;;1.37;0.75;;;;;;;;;;1848054;76;26204;-28
2022/01/12 10:44:34;;;;;;;0.90;0.90;;;;;;;;;;1850820;76;26647;-35
2022/01/12 10:47:03;;;;;;;0.80;0.80;;;;;;;;;;1843241;76;26804;-32
2022/01/12 10:49:33;;;;;;;0.82;0.82;;;;;;;;;;1854185;76;26680;-30
2022/01/12 10:52:00;;;;;;;1.55;0.80;;;;;;;;;;1849597;76;26557;-27
2022/01/12 10:54:28;;;;;;;2.25;0.90;;;;;;;;;;1844625;76;26322;-33
2022/01/12 10:56:55;;;;;;;1.27;0.88;;;;;;;;;;1843826;76;26348;-44
2022/01/12 10:59:23;;;;;;;5.87;0.78;;;;;;;;;;1855657;76;26272;-38
2022/01/12 11:01:50;;;;;;;1.05;1.00;;;;;;;;;;1849143;76;26267;-32
2022/01/12 11:04:18;;;;;;;0.90;0.80;;;;;;;;;;1850630;76;26389;-40
2022/01/12 11:06:46;;;;;;;0.70;0.70;;;;;;;;;;1853732;76;26302;-29
2022/01/12 11:09:13;;;;;;;0.70;0.70;;;;;;;;;;1855093;76;27406;-45
2022/01/12 11:11:41;;;;;;;0.80;0.80;;;;;;;;;;1856689;76;26303;-36
2022/01/12 11:14:11;;;;;;;4.00;0.90;;;;;;;;;;1853899;76;26397;-43
2022/01/12 11:16:38;;;;;;;0.82;0.70;;;;;;;;;;1851554;76;26291;-38
2022/01/12 11:19:07;;;;;;;0.62;0.62;;;;;;;;;;1856728;76;26329;-29
2022/01/12 11:21:41;;;;;;;0.60;0.60;;;;;;;;;;1853053;76;26645;-27
2022/01/12 11:24:09;;;;;;;0.68;0.68;;;;;;;;;;1853971;76;26952;-41
2022/01/12 11:26:36;;;;;;;0.80;0.80;;;;;;;;;;1849388;76;26717;-31
2022/01/12 11:29:04;;;;;;;0.93;0.80;;;;;;;;;;1848164;76;26630;-41
2022/01/12 11:31:34;;;;;;;0.70;0.70;;;;;;;;;;1846366;76;26922;-34
2022/01/12 11:34:01;;;;;;;147.93;4.60;;;;;;;;;;1841009;76;28362;-32
2022/01/12 11:36:36;;;;;;;6.00;1.00;;;;;;;;;;1848199;76;26344;-33
2022/01/12 11:39:05;;;;;;;19.15;1.00;;;;;;;;;;1840588;76;26290;-30
2022/01/12 11:41:34;;;;;;;4.45;1.30;;;;;;;;;;1840383;76;25621;-31
2022/01/12 11:44:05;;;;;;;15.05;1.00;;;;;;;;;;1842677;76;26252;-28
2022/01/12 11:46:46;;;;;;;3.42;0.90;;;;;;;;;;1844432;76;26271;-33
2022/01/12 11:49:30;;;;;;;6.55;1.00;;;;;;;;;;1823187;76;28263;-30
2022/01/12 11:51:58;;;;;;;2.90;0.90;;;;;;;;;;1844248;76;26836;-38
2022/01/12 11:54:39;;;;;;;11.75;1.07;;;;;;;;;;1839350;76;26357;-34
2022/01/12 11:57:08;;;;;;;8.00;0.98;;;;;;;;;;1842789;76;26276;-31
2022/01/12 11:59:54;;;;;;;5.58;0.90;;;;;;;;;;1841314;76;26276;-32
2022/01/12 12:02:25;;;;;;;7.00;1.12;;;;;;;;;;1840047;76;26352;-29
2022/01/12 12:05:00;;;;;;;16.42;1.22;;;;;;;;;;1840847;76;26299;-33
2022/01/12 12:07:28;;;;;;;4.45;0.78;;;;;;;;;;1837844;76;26267;-29
2022/01/12 12:09:57;;;;;;;6.25;1.00;;;;;;;;;;1838962;77;26271;-34
2022/01/12 12:12:32;;;;;;;3.20;0.80;;;;;;;;;;1844956;76;26361;-37
2022/01/12 12:15:01;;;;;;;2.62;0.90;;;;;;;;;;1838019;76;26346;-31
2022/01/12 12:17:29;;;;;;;2.95;0.95;;;;;;;;;;1840273;76;26266;-31
2022/01/12 12:19:57;;;;;;;10.00;1.22;;;;;;;;;;1834041;77;26271;-34
2022/01/12 12:22:26;;;;;;;4.83;0.90;;;;;;;;;;1831743;76;26280;-37
2022/01/12 12:24:55;;;;;;;6.20;1.20;;;;;;;;;;1839561;77;26799;-30
2022/01/12 12:27:24;;;;;;;5.50;0.88;;;;;;;;;;1838573;76;26426;-29
2022/01/12 12:29:52;;;;;;;6.25;1.10;;;;;;;;;;1843329;76;26278;-29
2022/01/12 12:32:20;;;;;;;3.85;1.20;;;;;;;;;;1838419;76;26865;-30
2022/01/12 12:34:48;;;;;;;6.70;1.20;;;;;;;;;;1841760;76;26284;-32
2022/01/12 12:37:17;;;;;;;4.62;0.82;;;;;;;;;;1848685;76;27445;-29
2022/01/12 12:39:46;;;;;;;3.72;1.20;;;;;;;;;;1856271;76;26298;-31
2022/01/12 12:42:17;;;;;;;14.90;1.40;;;;;;;;;;1850312;76;26263;-32
2022/01/12 12:44:45;;;;;;;5.67;1.30;;;;;;;;;;1848640;77;26285;-29
2022/01/12 12:47:14;;;;;;;6.45;1.30;;;;;;;;;;1854797;76;26688;-31
2022/01/12 12:49:48;;;;;;;9.23;1.60;;;;;;;;;;1851483;76;26266;-25
2022/01/12 12:52:23;;;;;;;16.27;2.10;;;;;;;;;;1849118;76;26319;-33
2022/01/12 12:54:51;;;;;;;13.35;1.67;;;;;;;;;;1846437;76;26751;-33
2022/01/12 12:57:23;;;;;;;12.43;1.77;;;;;;;;;;1846763;77;26333;-33
2022/01/12 12:59:49;;;;;;;13.43;1.82;;;;;;;;;;1854624;76;26283;-32
2022/01/12 13:02:17;;;;;;;7.22;1.30;;;;;;;;;;1856980;76;26299;-35
2022/01/12 13:04:44;;;;;;;6.12;1.40;;;;;;;;;;1853913;76;26698;-27
2022/01/12 13:07:17;;;;;;;13.13;1.45;;;;;;;;;;1848960;76;26321;-32
2022/01/12 13:09:45;;;;;;;5.90;1.00;;;;;;;;;;1848269;76;26103;-31
2022/01/12 13:12:13;;;;;;;5.28;1.05;;;;;;;;;;1846994;76;26358;-31
2022/01/12 13:14:42;;;;;;;4.85;1.00;;;;;;;;;;1847572;76;26335;-33
2022/01/12 13:17:10;;;;;;;3.77;1.00;;;;;;;;;;1849927;76;26709;-31
2022/01/12 13:22:25;;;;;;;2.10;0.53;;;;;;;;;;1848171;76;26318;-29
2022/01/12 13:24:53;;;;;;;2.77;0.98;;;;;;;;;;1852711;76;26304;-30
2022/01/12 13:27:21;;;;;;;2.40;1.12;;;;;;;;;;1851616;76;26259;-30
2022/01/12 13:29:49;;;;;;;3.92;0.90;;;;;;;;;;1849216;76;26307;-27
2022/01/12 13:32:17;;;;;;;4.05;1.00;;;;;;;;;;1851353;76;27537;-34
2022/01/12 13:34:57;;;;;;;3.72;0.70;;;;;;;;;;1849902;76;26283;-26
2022/01/12 13:37:25;;;;;;;0.98;0.70;;;;;;;;;;1848484;76;26365;-29
2022/01/12 13:40:06;;;;;;;1.57;1.10;;;;;;;;;;1852091;76;26507;-33
2022/01/12 13:42:35;;;;;;;6.50;0.88;;;;;;;;;;1852521;76;26221;-28
2022/01/12 13:45:04;;;;;;;1.37;0.68;;;;;;;;;;1851208;76;26359;-32
2022/01/12 13:47:35;;;;;;;4.58;1.10;;;;;;;;;;1853399;76;26839;-29
2022/01/12 13:50:02;;;;;;;4.90;0.70;;;;;;;;;;1853058;76;26708;-30
2022/01/12 13:52:29;;;;;;;3.55;0.88;;;;;;;;;;1850514;76;26341;-29
2022/01/12 13:54:58;;;;;;;2.00;0.80;;;;;;;;;;1852264;76;26370;-28
2022/01/12 13:57:27;;;;;;;1.70;0.88;;;;;;;;;;1850380;76;26390;-27
2022/01/12 13:59:54;;;;;;;3.00;0.90;;;;;;;;;;1850511;76;26280;-31
2022/01/12 14:02:24;;;;;;;1.30;0.85;;;;;;;;;;1851507;76;26291;-28
2022/01/12 14:05:05;;;;;;;3.37;0.83;;;;;;;;;;1847002;76;26655;-28
2022/01/12 14:07:25;;;;;;;4.30;0.70;;;;;;;;;;1849749;76;26372;-25
2022/01/12 14:09:57;;;;;;;4.85;0.98;;;;;;;;;;1853573;76;26346;-30
2022/01/12 14:12:26;;;;;;;2.72;0.90;;;;;;;;;;1852183;76;26330;-26
2022/01/12 14:14:55;;;;;;;5.75;0.95;;;;;;;;;;1852034;76;26849;-29
2022/01/12 14:17:27;;;;;;;0.80;0.70;;;;;;;;;;1852744;76;26252;-30
2022/01/12 14:19:55;;;;;;;1.87;0.80;;;;;;;;;;1846651;76;26342;-30
2022/01/12 14:22:23;;;;;;;3.05;0.80;;;;;;;;;;1847426;76;26782;-29
2022/01/12 14:24:55;;;;;;;4.42;1.00;;;;;;;;;;1843125;76;26213;-26
2022/01/12 14:27:22;;;;;;;3.33;0.80;;;;;;;;;;1838047;76;26377;-26
2022/01/12 14:29:50;;;;;;;5.03;0.95;;;;;;;;;;1847636;76;26270;-25
2022/01/12 14:32:17;;;;;;;1.65;0.88;;;;;;;;;;1850433;76;26249;-28
2022/01/12 14:34:45;;;;;;;4.90;1.10;;;;;;;;;;1853511;76;27068;-30
2022/01/12 14:37:12;;;;;;;2.72;1.07;;;;;;;;;;1850461;76;26321;-27
2022/01/12 14:39:40;;;;;;;3.12;1.20;;;;;;;;;;1854374;76;26787;-34
2022/01/12 14:42:08;;;;;;;2.50;1.55;;;;;;;;;;1852233;76;26337;-35
2022/01/12 14:44:38;;;;;;;3.77;1.35;;;;;;;;;;1849597;76;26810;-29
2022/01/12 14:47:04;;;;;;;4.17;1.50;;;;;;;;;;1851914;76;26804;-26
2022/01/12 14:49:32;;;;;;;4.92;1.50;;;;;;;;;;1849246;76;26330;-24
2022/01/12 14:51:59;;;;;;;4.42;1.70;;;;;;;;;;1844950;76;26824;-31
2022/01/12 14:54:27;;;;;;;3.60;1.85;;;;;;;;;;1844296;76;26265;-27
2022/01/12 14:56:54;;;;;;;16.02;2.10;;;;;;;;;;1849167;77;26251;-29
2022/01/12 14:59:21;;;;;;;6.87;2.35;;;;;;;;;;1842690;76;26309;-30
2022/01/12 15:01:49;;;;;;;5.30;2.08;;;;;;;;;;1851042;76;26233;-28
2022/01/12 15:04:16;;;;;;;6.40;2.47;;;;;;;;;;1844876;77;26437;-30
2022/01/12 15:06:44;;;;;;;5.85;2.10;;;;;;;;;;1852324;76;26793;-33
2022/01/12 15:09:12;;;;;;;6.62;2.40;;;;;;;;;;1849626;76;26318;-29
2022/01/12 15:11:41;;;;;;;7.58;3.00;;;;;;;;;;1849366;76;26249;-29
2022/01/12 15:16:53;;;;;;;7.33;2.85;;;;;;;;;;1807421;77;26294;-39
2022/01/12 15:19:20;;;;;;;4.40;2.55;;;;;;;;;;1832127;77;26333;-29
2022/01/12 15:21:48;;;;;;;7.28;3.00;;;;;;;;;;1840863;76;26399;-31
2022/01/12 15:24:15;;;;;;;8.70;3.08;;;;;;;;;;1842945;76;26726;-30
2022/01/12 15:26:42;;;;;;;5.37;2.77;;;;;;;;;;1850870;76;26252;-32
2022/01/12 15:29:10;;;;;;;8.88;3.33;;;;;;;;;;1848537;76;27120;-31
2022/01/12 15:31:37;;;;;;;9.85;3.45;;;;;;;;;;1854602;76;26206;-32
2022/01/12 15:34:04;;;;;;;7.90;3.17;;;;;;;;;;1856247;76;26330;-33
2022/01/12 15:36:31;;;;;;;8.33;2.90;;;;;;;;;;1850224;76;26272;-27
2022/01/12 15:38:59;;;;;;;7.83;3.15;;;;;;;;;;1827099;76;26360;-32
2022/01/12 15:41:26;;;;;;;8.80;2.80;;;;;;;;;;1813704;79;26574;-29
2022/01/12 15:43:54;;;;;;;6.95;3.05;;;;;;;;;;1814192;77;26264;-32
2022/01/12 15:46:21;;;;;;;8.23;2.87;;;;;;;;;;1823232;77;26759;-32
2022/01/12 15:48:49;;;;;;;5.85;3.08;;;;;;;;;;1817419;79;26345;-33
2022/01/12 15:51:16;;;;;;;5.70;3.00;;;;;;;;;;1817336;79;26790;-27
2022/01/12 15:53:43;;;;;;;6.37;3.00;;;;;;;;;;1817691;79;26758;-33
2022/01/12 15:56:11;;;;;;;7.55;3.00;;;;;;;;;;1817169;78;26246;-29
2022/01/12 15:58:38;;;;;;;5.37;2.58;;;;;;;;;;1812725;79;27398;-26
2022/01/12 16:01:06;;;;;;;4.55;2.30;;;;;;;;;;1815359;78;26307;-31
2022/01/12 16:03:33;;;;;;;5.83;2.65;;;;;;;;;;1807477;79;26203;-24
2022/01/12 16:06:01;;;;;;;4.45;2.15;;;;;;;;;;1814050;79;26235;-30
2022/01/12 16:08:28;;;;;;;4.10;2.17;;;;;;;;;;1813437;79;27037;-26
2022/01/12 16:10:57;;;;;;;7.00;2.45;;;;;;;;;;1807940;77;26423;-36
2022/01/12 16:13:25;;;;;;;5.72;2.27;;;;;;;;;;1743531;81;26374;-31